createdAt,value
2017-07-27T00:00:23.110Z,1001.08
2017-07-27T00:00:49.266Z,1001.14
2017-07-27T00:01:15.440Z,1001.12
2017-07-27T00:01:41.552Z,1001.09
2017-07-27T00:02:07.802Z,1001.16
2017-07-27T00:02:33.961Z,1001.1
2017-07-27T00:03:00.133Z,1001.1
2017-07-27T00:03:26.283Z,1001.12
2017-07-27T00:03:52.457Z,1001.15
2017-07-27T00:04:18.624Z,1001.13
2017-07-27T00:04:44.813Z,1001.18
2017-07-27T00:05:10.993Z,1001.14
2017-07-27T00:05:37.144Z,1001.11
2017-07-27T00:06:03.257Z,1001.15
2017-07-27T00:06:29.396Z,1001.18
2017-07-27T00:06:55.585Z,1001.18
2017-07-27T00:07:21.726Z,1001.15
2017-07-27T00:07:47.867Z,1001.19
2017-07-27T00:08:14.059Z,1001.16
2017-07-27T00:08:40.208Z,1001.14
2017-07-27T00:09:06.378Z,1001.19
2017-07-27T00:09:32.652Z,1001.19
2017-07-27T00:09:58.818Z,1001.24
2017-07-27T00:10:24.946Z,1001.23
2017-07-27T00:10:51.074Z,1001.18
2017-07-27T00:11:17.238Z,1001.21
2017-07-27T00:11:43.463Z,1001.28
2017-07-27T00:12:09.666Z,1001.26
2017-07-27T00:12:35.808Z,1001.21
2017-07-27T00:13:01.986Z,1001.2
2017-07-27T00:13:28.135Z,1001.23
2017-07-27T00:13:54.272Z,1001.22
2017-07-27T00:14:20.481Z,1001.28
2017-07-27T00:14:46.635Z,1001.22
2017-07-27T00:15:12.773Z,1001.24
2017-07-27T00:15:38.945Z,1001.24
2017-07-27T00:16:05.134Z,1001.25
2017-07-27T00:16:31.303Z,1001.22
2017-07-27T00:16:57.501Z,1001.29
2017-07-27T00:17:23.640Z,1001.26
2017-07-27T00:17:49.797Z,1001.24
2017-07-27T00:18:15.952Z,1001.25
2017-07-27T00:18:42.146Z,1001.27
2017-07-27T00:19:08.289Z,1001.21
2017-07-27T00:19:34.482Z,1001.25
2017-07-27T00:20:00.619Z,1001.27
2017-07-27T00:20:26.789Z,1001.28
2017-07-27T00:20:52.946Z,1001.24
2017-07-27T00:21:19.092Z,1001.26
2017-07-27T00:21:45.257Z,1001.26
2017-07-27T00:22:11.469Z,1001.23
2017-07-27T00:22:37.614Z,1001.25
2017-07-27T00:23:03.737Z,1001.26
2017-07-27T00:23:29.849Z,1001.28
2017-07-27T00:23:55.967Z,1001.22
2017-07-27T00:24:22.156Z,1001.27
2017-07-27T00:24:48.279Z,1001.2
2017-07-27T00:25:14.443Z,1001.23
2017-07-27T00:25:40.630Z,1001.2
2017-07-27T00:26:06.809Z,1001.13
2017-07-27T00:26:32.971Z,1001.2
2017-07-27T00:26:59.097Z,1001.21
2017-07-27T00:27:25.217Z,1001.15
2017-07-27T00:27:51.365Z,1001.16
2017-07-27T00:28:17.502Z,1001.14
2017-07-27T00:28:43.640Z,1001.15
2017-07-27T00:29:09.798Z,1001.17
2017-07-27T00:29:35.949Z,1001.19
2017-07-27T00:30:02.170Z,1001.23
2017-07-27T00:30:28.350Z,1001.17
2017-07-27T00:30:54.498Z,1001.21
2017-07-27T00:31:20.609Z,1001.19
2017-07-27T00:31:46.794Z,1001.19
2017-07-27T00:32:12.916Z,1001.16
2017-07-27T00:32:39.080Z,1001.24
2017-07-27T00:33:05.227Z,1001.25
2017-07-27T00:33:31.342Z,1001.19
2017-07-27T00:33:57.524Z,1001.17
2017-07-27T00:34:23.704Z,1001.23
2017-07-27T00:34:50.046Z,1001.15
2017-07-27T00:35:16.235Z,1001.23
2017-07-27T00:35:42.423Z,1001.19
2017-07-27T00:36:08.591Z,1001.22
2017-07-27T00:36:34.768Z,1001.18
2017-07-27T00:37:00.922Z,1001.17
2017-07-27T00:37:27.060Z,1001.2
2017-07-27T00:37:53.205Z,1001.17
2017-07-27T00:38:19.328Z,1001.15
2017-07-27T00:38:45.498Z,1001.21
2017-07-27T00:39:11.639Z,1001.23
2017-07-27T00:39:37.808Z,1001.21
2017-07-27T00:40:03.924Z,1001.21
2017-07-27T00:40:30.066Z,1001.22
2017-07-27T00:40:56.253Z,1001.19
2017-07-27T00:41:22.427Z,1001.21
2017-07-27T00:41:48.615Z,1001.23
2017-07-27T00:42:14.798Z,1001.18
2017-07-27T00:42:40.922Z,1001.18
2017-07-27T00:43:07.085Z,1001.17
2017-07-27T00:43:33.262Z,1001.18
2017-07-27T00:43:59.413Z,1001.17
2017-07-27T00:44:25.553Z,1001.23
2017-07-27T00:44:51.738Z,1001.19
2017-07-27T00:45:17.879Z,1001.18
2017-07-27T00:45:44.084Z,1001.22
2017-07-27T00:46:10.278Z,1001.17
2017-07-27T00:46:36.410Z,1001.18
2017-07-27T00:47:02.530Z,1001.15
2017-07-27T00:47:28.719Z,1001.18
2017-07-27T00:47:54.865Z,1001.16
2017-07-27T00:48:21.007Z,1001.17
2017-07-27T00:48:47.166Z,1001.16
2017-07-27T00:49:13.372Z,1001.2
2017-07-27T00:49:39.536Z,1001.15
2017-07-27T00:50:05.659Z,1001.19
2017-07-27T00:50:31.804Z,1001.15
2017-07-27T00:50:57.992Z,1001.13
2017-07-27T00:51:24.127Z,1001.12
2017-07-27T00:51:50.269Z,1001.11
2017-07-27T00:52:16.396Z,1001.07
2017-07-27T00:52:42.601Z,1001.08
2017-07-27T00:53:08.737Z,1001.07
2017-07-27T00:53:34.899Z,1001.06
2017-07-27T00:54:01.044Z,1001.09
2017-07-27T00:54:27.210Z,1001.11
2017-07-27T00:54:53.334Z,1001.14
2017-07-27T00:55:19.551Z,1001.13
2017-07-27T00:55:45.719Z,1001.08
2017-07-27T00:56:11.924Z,1001.08
2017-07-27T00:56:38.062Z,1001.15
2017-07-27T00:57:04.223Z,1001.09
2017-07-27T00:57:30.401Z,1001.18
2017-07-27T00:57:56.538Z,1001.11
2017-07-27T00:58:22.703Z,1001.1
2017-07-27T00:58:48.907Z,1001.1
2017-07-27T00:59:15.045Z,1001.09
2017-07-27T00:59:41.165Z,1001.12
2017-07-27T01:00:07.388Z,1001.08
2017-07-27T01:00:33.576Z,1001.05
2017-07-27T01:00:59.725Z,1001.14
2017-07-27T01:01:25.882Z,1001.11
2017-07-27T01:01:52.048Z,1001.07
2017-07-27T01:02:18.216Z,1001.07
2017-07-27T01:02:44.373Z,1001.1
2017-07-27T01:03:10.516Z,1001.08
2017-07-27T01:03:36.710Z,1001.06
2017-07-27T01:04:02.933Z,1001.07
2017-07-27T01:04:29.049Z,1001.07
2017-07-27T01:04:55.220Z,1001.13
2017-07-27T01:05:21.402Z,1001.07
2017-07-27T01:05:47.585Z,1001.12
2017-07-27T01:06:13.693Z,1001.09
2017-07-27T01:06:39.816Z,1001.15
2017-07-27T01:07:06.010Z,1001.04
2017-07-27T01:07:32.233Z,1001.08
2017-07-27T01:07:58.435Z,1001.08
2017-07-27T01:08:24.634Z,1001.06
2017-07-27T01:08:50.786Z,1001.06
2017-07-27T01:09:16.906Z,1001.04
2017-07-27T01:09:43.069Z,1001.04
2017-07-27T01:10:09.254Z,1000.99
2017-07-27T01:10:35.377Z,1000.95
2017-07-27T01:11:01.570Z,1000.99
2017-07-27T01:11:27.772Z,1001
2017-07-27T01:11:53.926Z,1000.95
2017-07-27T01:12:20.070Z,1000.98
2017-07-27T01:12:46.193Z,1000.93
2017-07-27T01:13:12.326Z,1000.93
2017-07-27T01:13:38.475Z,1000.92
2017-07-27T01:14:04.636Z,1000.95
2017-07-27T01:14:30.747Z,1000.9
2017-07-27T01:14:56.896Z,1000.9
2017-07-27T01:15:23.086Z,1000.93
2017-07-27T01:15:49.197Z,1000.89
2017-07-27T01:16:15.373Z,1000.92
2017-07-27T01:16:41.533Z,1000.92
2017-07-27T01:17:07.644Z,1000.92
2017-07-27T01:17:33.755Z,1000.9
2017-07-27T01:17:59.971Z,1000.9
2017-07-27T01:18:26.150Z,1000.87
2017-07-27T01:18:52.309Z,1000.91
2017-07-27T01:19:18.505Z,1000.91
2017-07-27T01:19:44.676Z,1000.89
2017-07-27T01:20:10.890Z,1000.9
2017-07-27T01:20:37.033Z,1000.91
2017-07-27T01:21:03.142Z,1000.91
2017-07-27T01:21:29.332Z,1000.93
2017-07-27T01:21:55.477Z,1000.9
2017-07-27T01:22:21.648Z,1000.88
2017-07-27T01:22:47.860Z,1000.93
2017-07-27T01:23:14.077Z,1000.91
2017-07-27T01:23:40.270Z,1000.92
2017-07-27T01:24:06.474Z,1000.93
2017-07-27T01:24:32.599Z,1000.94
2017-07-27T01:24:58.732Z,1000.93
2017-07-27T01:25:24.906Z,1000.92
2017-07-27T01:25:51.098Z,1000.88
2017-07-27T01:26:17.204Z,1000.9
2017-07-27T01:26:43.318Z,1000.89
2017-07-27T01:27:09.477Z,1000.88
2017-07-27T01:27:35.653Z,1000.87
2017-07-27T01:28:01.788Z,1000.87
2017-07-27T01:28:28.042Z,1000.87
2017-07-27T01:28:54.186Z,1000.84
2017-07-27T01:29:20.309Z,1000.82
2017-07-27T01:29:46.446Z,1000.83
2017-07-27T01:30:12.591Z,1000.84
2017-07-27T01:30:38.779Z,1000.85
2017-07-27T01:31:04.928Z,1000.85
2017-07-27T01:31:31.037Z,1000.83
2017-07-27T01:31:57.227Z,1000.82
2017-07-27T01:32:23.342Z,1000.8
2017-07-27T01:32:49.480Z,1000.8
2017-07-27T01:33:15.605Z,1000.8
2017-07-27T01:33:41.727Z,1000.78
2017-07-27T01:34:07.893Z,1000.81
2017-07-27T01:34:34.041Z,1000.8
2017-07-27T01:35:00.212Z,1000.8
2017-07-27T01:35:26.524Z,1000.84
2017-07-27T01:35:52.672Z,1000.86
2017-07-27T01:36:18.832Z,1000.83
2017-07-27T01:36:44.989Z,1000.86
2017-07-27T01:37:11.169Z,1000.84
2017-07-27T01:37:37.280Z,1000.84
2017-07-27T01:38:03.431Z,1000.89
2017-07-27T01:38:29.557Z,1000.85
2017-07-27T01:38:55.751Z,1000.84
2017-07-27T01:39:21.895Z,1000.84
2017-07-27T01:39:48.084Z,1000.85
2017-07-27T01:40:14.247Z,1000.82
2017-07-27T01:40:40.403Z,1000.77
2017-07-27T01:41:06.513Z,1000.78
2017-07-27T01:41:32.675Z,1000.8
2017-07-27T01:41:58.855Z,1000.78
2017-07-27T01:42:25.077Z,1000.77
2017-07-27T01:42:51.307Z,1000.81
2017-07-27T01:43:17.431Z,1000.79
2017-07-27T01:43:43.570Z,1000.79
2017-07-27T01:44:09.764Z,1000.81
2017-07-27T01:44:35.956Z,1000.78
2017-07-27T01:45:02.125Z,1000.79
2017-07-27T01:45:28.292Z,1000.78
2017-07-27T01:45:54.503Z,1000.74
2017-07-27T01:46:20.603Z,1000.79
2017-07-27T01:46:46.737Z,1000.76
2017-07-27T01:47:12.851Z,1000.73
2017-07-27T01:47:38.999Z,1000.76
2017-07-27T01:48:05.189Z,1000.72
2017-07-27T01:48:31.311Z,1000.73
2017-07-27T01:48:57.401Z,1000.76
2017-07-27T01:49:23.594Z,1000.7
2017-07-27T01:49:49.747Z,1000.71
2017-07-27T01:50:15.839Z,1000.67
2017-07-27T01:50:41.969Z,1000.72
2017-07-27T01:51:08.123Z,1000.67
2017-07-27T01:51:34.301Z,1000.69
2017-07-27T01:52:00.445Z,1000.7
2017-07-27T01:52:26.586Z,1000.69
2017-07-27T01:52:52.725Z,1000.72
2017-07-27T01:53:18.873Z,1000.69
2017-07-27T01:53:45.014Z,1000.63
2017-07-27T01:54:11.199Z,1000.64
2017-07-27T01:54:37.383Z,1000.68
2017-07-27T01:55:03.496Z,1000.66
2017-07-27T01:55:29.599Z,1000.63
2017-07-27T01:55:55.731Z,1000.63
2017-07-27T01:56:21.845Z,1000.63
2017-07-27T01:56:47.995Z,1000.6
2017-07-27T01:57:14.140Z,1000.64
2017-07-27T01:57:40.246Z,1000.64
2017-07-27T01:58:06.430Z,1000.65
2017-07-27T01:58:32.571Z,1000.64
2017-07-27T01:58:58.700Z,1000.64
2017-07-27T01:59:24.834Z,1000.65
2017-07-27T01:59:50.975Z,1000.67
2017-07-27T02:00:17.150Z,1000.65
2017-07-27T02:00:43.312Z,1000.65
2017-07-27T02:01:09.452Z,1000.66
2017-07-27T02:01:35.570Z,1000.68
2017-07-27T02:02:01.738Z,1000.65
2017-07-27T02:02:27.855Z,1000.65
2017-07-27T02:02:54.043Z,1000.7
2017-07-27T02:03:20.159Z,1000.65
2017-07-27T02:03:46.284Z,1000.62
2017-07-27T02:04:12.470Z,1000.65
2017-07-27T02:04:38.586Z,1000.63
2017-07-27T02:05:04.734Z,1000.62
2017-07-27T02:05:30.839Z,1000.61
2017-07-27T02:05:57.037Z,1000.62
2017-07-27T02:06:23.177Z,1000.52
2017-07-27T02:06:49.365Z,1000.53
2017-07-27T02:07:15.546Z,1000.56
2017-07-27T02:07:41.687Z,1000.54
2017-07-27T02:08:07.848Z,1000.56
2017-07-27T02:08:34.002Z,1000.58
2017-07-27T02:09:00.171Z,1000.61
2017-07-27T02:09:26.321Z,1000.58
2017-07-27T02:09:52.453Z,1000.61
2017-07-27T02:10:18.592Z,1000.57
2017-07-27T02:10:44.769Z,1000.58
2017-07-27T02:11:10.902Z,1000.61
2017-07-27T02:11:37.016Z,1000.61
2017-07-27T02:12:03.113Z,1000.57
2017-07-27T02:12:29.273Z,1000.59
2017-07-27T02:12:55.365Z,1000.62
2017-07-27T02:13:21.507Z,1000.65
2017-07-27T02:13:47.608Z,1000.66
2017-07-27T02:14:13.807Z,1000.59
2017-07-27T02:14:39.969Z,1000.59
2017-07-27T02:15:06.084Z,1000.56
2017-07-27T02:15:32.231Z,1000.62
2017-07-27T02:15:58.365Z,1000.65
2017-07-27T02:16:24.461Z,1000.61
2017-07-27T02:16:50.598Z,1000.59
2017-07-27T02:17:16.762Z,1000.7
2017-07-27T02:17:42.914Z,1000.55
2017-07-27T02:18:09.078Z,1000.64
2017-07-27T02:18:35.185Z,1000.69
2017-07-27T02:19:01.342Z,1000.65
2017-07-27T02:19:27.493Z,1000.63
2017-07-27T02:19:53.664Z,1000.65
2017-07-27T02:20:19.805Z,1000.6
2017-07-27T02:20:45.917Z,1000.64
2017-07-27T02:21:12.013Z,1000.63
2017-07-27T02:21:38.178Z,1000.66
2017-07-27T02:22:04.308Z,1000.63
2017-07-27T02:22:30.462Z,1000.65
2017-07-27T02:22:56.625Z,1000.59
2017-07-27T02:23:22.756Z,1000.62
2017-07-27T02:23:48.943Z,1000.63
2017-07-27T02:24:15.056Z,1000.66
2017-07-27T02:24:41.208Z,1000.64
2017-07-27T02:25:07.326Z,1000.6
2017-07-27T02:25:33.433Z,1000.57
2017-07-27T02:25:59.713Z,1000.57
2017-07-27T02:26:25.851Z,1000.58
2017-07-27T02:26:52.006Z,1000.54
2017-07-27T02:27:18.166Z,1000.63
2017-07-27T02:27:44.280Z,1000.63
2017-07-27T02:28:10.404Z,1000.58
2017-07-27T02:28:36.593Z,1000.58
2017-07-27T02:29:02.686Z,1000.56
2017-07-27T02:29:28.804Z,1000.59
2017-07-27T02:29:54.936Z,1000.57
2017-07-27T02:30:21.082Z,1000.6
2017-07-27T02:30:47.267Z,1000.55
2017-07-27T02:31:13.428Z,1000.57
2017-07-27T02:31:39.552Z,1000.6
2017-07-27T02:32:05.738Z,1000.52
2017-07-27T02:32:31.860Z,1000.56
2017-07-27T02:32:58.004Z,1000.57
2017-07-27T02:33:24.164Z,1000.53
2017-07-27T02:33:50.285Z,1000.52
2017-07-27T02:34:16.452Z,1000.53
2017-07-27T02:34:42.561Z,1000.55
2017-07-27T02:35:08.704Z,1000.57
2017-07-27T02:35:34.801Z,1000.56
2017-07-27T02:36:00.989Z,1000.51
2017-07-27T02:36:27.134Z,1000.52
2017-07-27T02:36:53.291Z,1000.63
2017-07-27T02:37:19.434Z,1000.57
2017-07-27T02:37:45.548Z,1000.61
2017-07-27T02:38:11.685Z,1000.61
2017-07-27T02:38:37.863Z,1000.57
2017-07-27T02:39:04.000Z,1000.61
2017-07-27T02:39:30.143Z,1000.59
2017-07-27T02:39:56.289Z,1000.51
2017-07-27T02:40:22.429Z,1000.55
2017-07-27T02:40:48.557Z,1000.53
2017-07-27T02:41:14.693Z,1000.56
2017-07-27T02:41:40.842Z,1000.54
2017-07-27T02:42:06.937Z,1000.55
2017-07-27T02:42:33.049Z,1000.6
2017-07-27T02:42:59.235Z,1000.53
2017-07-27T02:43:25.391Z,1000.51
2017-07-27T02:43:51.506Z,1000.5
2017-07-27T02:44:17.657Z,1000.51
2017-07-27T02:44:43.793Z,1000.48
2017-07-27T02:45:09.957Z,1000.5
2017-07-27T02:45:36.137Z,1000.5
2017-07-27T02:46:02.299Z,1000.5
2017-07-27T02:46:28.468Z,1000.47
2017-07-27T02:46:54.588Z,1000.5
2017-07-27T02:47:20.739Z,1000.43
2017-07-27T02:47:46.843Z,1000.46
2017-07-27T02:48:12.950Z,1000.45
2017-07-27T02:48:39.131Z,1000.5
2017-07-27T02:49:05.282Z,1000.48
2017-07-27T02:49:31.416Z,1000.45
2017-07-27T02:49:57.533Z,1000.46
2017-07-27T02:50:23.702Z,1000.45
2017-07-27T02:50:49.808Z,1000.42
2017-07-27T02:51:15.929Z,1000.41
2017-07-27T02:51:42.070Z,1000.43
2017-07-27T02:52:08.233Z,1000.41
2017-07-27T02:52:34.357Z,1000.41
2017-07-27T02:53:00.471Z,1000.4
2017-07-27T02:53:26.659Z,1000.44
2017-07-27T02:53:52.758Z,1000.45
2017-07-27T02:54:18.901Z,1000.43
2017-07-27T02:54:45.205Z,1000.41
2017-07-27T02:55:11.313Z,1000.43
2017-07-27T02:55:37.423Z,1000.44
2017-07-27T02:56:03.548Z,1000.45
2017-07-27T02:56:29.682Z,1000.38
2017-07-27T02:56:55.796Z,1000.41
2017-07-27T02:57:21.940Z,1000.37
2017-07-27T02:57:48.103Z,1000.43
2017-07-27T02:58:14.220Z,1000.47
2017-07-27T02:58:40.353Z,1000.4
2017-07-27T02:59:06.467Z,1000.39
2017-07-27T02:59:32.613Z,1000.37
2017-07-27T02:59:58.778Z,1000.4
2017-07-27T03:00:24.897Z,1000.35
2017-07-27T03:00:51.042Z,1000.33
2017-07-27T03:01:17.201Z,1000.35
2017-07-27T03:01:43.344Z,1000.34
2017-07-27T03:02:09.437Z,1000.3
2017-07-27T03:02:35.545Z,1000.32
2017-07-27T03:03:01.723Z,1000.31
2017-07-27T03:03:27.812Z,1000.33
2017-07-27T03:03:53.969Z,1000.31
2017-07-27T03:04:20.090Z,1000.3
2017-07-27T03:04:46.271Z,1000.25
2017-07-27T03:05:12.417Z,1000.33
2017-07-27T03:05:38.531Z,1000.3
2017-07-27T03:06:04.667Z,1000.3
2017-07-27T03:06:30.791Z,1000.31
2017-07-27T03:06:56.906Z,1000.28
2017-07-27T03:07:23.092Z,1000.27
2017-07-27T03:07:49.218Z,1000.28
2017-07-27T03:08:15.358Z,1000.29
2017-07-27T03:08:41.485Z,1000.27
2017-07-27T03:09:07.673Z,1000.24
2017-07-27T03:09:33.790Z,1000.29
2017-07-27T03:09:59.941Z,1000.28
2017-07-27T03:10:26.101Z,1000.26
2017-07-27T03:10:52.268Z,1000.27
2017-07-27T03:11:18.370Z,1000.28
2017-07-27T03:11:44.481Z,1000.28
2017-07-27T03:12:10.584Z,1000.29
2017-07-27T03:12:36.716Z,1000.27
2017-07-27T03:13:02.826Z,1000.24
2017-07-27T03:13:28.976Z,1000.25
2017-07-27T03:13:55.110Z,1000.32
2017-07-27T03:14:21.250Z,1000.29
2017-07-27T03:14:47.398Z,1000.29
2017-07-27T03:15:13.520Z,1000.29
2017-07-27T03:15:39.652Z,1000.3
2017-07-27T03:16:05.814Z,1000.26
2017-07-27T03:16:31.950Z,1000.3
2017-07-27T03:16:58.075Z,1000.25
2017-07-27T03:17:24.207Z,1000.29
2017-07-27T03:17:50.372Z,1000.28
2017-07-27T03:18:16.495Z,1000.27
2017-07-27T03:18:42.631Z,1000.29
2017-07-27T03:19:08.771Z,1000.33
2017-07-27T03:19:34.862Z,1000.3
2017-07-27T03:20:01.053Z,1000.26
2017-07-27T03:20:27.179Z,1000.3
2017-07-27T03:20:53.358Z,1000.32
2017-07-27T03:21:19.473Z,1000.33
2017-07-27T03:21:45.744Z,1000.32
2017-07-27T03:22:11.877Z,1000.31
2017-07-27T03:22:38.051Z,1000.31
2017-07-27T03:23:04.189Z,1000.28
2017-07-27T03:23:30.327Z,1000.27
2017-07-27T03:23:56.478Z,1000.31
2017-07-27T03:24:22.645Z,1000.29
2017-07-27T03:24:48.751Z,1000.28
2017-07-27T03:25:14.933Z,1000.23
2017-07-27T03:25:41.024Z,1000.26
2017-07-27T03:26:07.128Z,1000.26
2017-07-27T03:26:33.220Z,1000.24
2017-07-27T03:26:59.407Z,1000.22
2017-07-27T03:27:25.504Z,1000.21
2017-07-27T03:27:51.596Z,1000.2
2017-07-27T03:28:17.730Z,1000.22
2017-07-27T03:28:43.883Z,1000.22
2017-07-27T03:29:10.001Z,1000.23
2017-07-27T03:29:36.156Z,1000.23
2017-07-27T03:30:02.293Z,1000.23
2017-07-27T03:30:28.455Z,1000.21
2017-07-27T03:30:54.604Z,1000.17
2017-07-27T03:31:20.762Z,1000.14
2017-07-27T03:31:46.907Z,1000.18
2017-07-27T03:32:13.037Z,1000.16
2017-07-27T03:32:39.175Z,1000.14
2017-07-27T03:33:05.331Z,1000.12
2017-07-27T03:33:31.466Z,1000.12
2017-07-27T03:33:57.578Z,1000.08
2017-07-27T03:34:23.750Z,1000.1
2017-07-27T03:34:49.882Z,1000.11
2017-07-27T03:35:16.001Z,1000.12
2017-07-27T03:35:42.144Z,1000.13
2017-07-27T03:36:08.277Z,1000.13
2017-07-27T03:36:34.400Z,1000.1
2017-07-27T03:37:00.490Z,1000.1
2017-07-27T03:37:26.654Z,1000.11
2017-07-27T03:37:52.803Z,1000.1
2017-07-27T03:38:18.894Z,1000.12
2017-07-27T03:38:45.027Z,1000.13
2017-07-27T03:39:11.182Z,1000.09
2017-07-27T03:39:37.345Z,1000.06
2017-07-27T03:40:03.525Z,1000.04
2017-07-27T03:40:29.658Z,1000.04
2017-07-27T03:40:55.772Z,1000
2017-07-27T03:41:21.922Z,1000.02
2017-07-27T03:41:48.056Z,999.95
2017-07-27T03:42:14.223Z,1000
2017-07-27T03:42:40.370Z,999.98
2017-07-27T03:43:06.519Z,999.93
2017-07-27T03:43:32.622Z,999.93
2017-07-27T03:43:58.811Z,999.9
2017-07-27T03:44:24.898Z,999.95
2017-07-27T03:44:51.022Z,999.92
2017-07-27T03:45:17.184Z,999.98
2017-07-27T03:45:43.275Z,999.98
2017-07-27T03:46:09.422Z,999.98
2017-07-27T03:46:35.555Z,999.99
2017-07-27T03:47:01.649Z,1000
2017-07-27T03:47:27.739Z,1000.02
2017-07-27T03:47:53.913Z,1000
2017-07-27T03:48:20.083Z,999.98
2017-07-27T03:48:46.261Z,1000.02
2017-07-27T03:49:12.407Z,1000.01
2017-07-27T03:49:38.547Z,1000.05
2017-07-27T03:50:04.683Z,1000.04
2017-07-27T03:50:30.828Z,1000.06
2017-07-27T03:50:56.920Z,1000.08
2017-07-27T03:51:23.085Z,1000.13
2017-07-27T03:51:49.209Z,1000.09
2017-07-27T03:52:15.299Z,1000.04
2017-07-27T03:52:41.457Z,1000.01
2017-07-27T03:53:07.582Z,1000
2017-07-27T03:53:33.696Z,1000.01
2017-07-27T03:53:59.824Z,1000.04
2017-07-27T03:54:25.916Z,1000.03
2017-07-27T03:54:52.079Z,1000.05
2017-07-27T03:55:18.231Z,1000.06
2017-07-27T03:55:44.370Z,1000.07
2017-07-27T03:56:10.475Z,1000.08
2017-07-27T03:56:36.603Z,1000.08
2017-07-27T03:57:02.716Z,1000.09
2017-07-27T03:57:28.843Z,1000.12
2017-07-27T03:57:55.032Z,1000.11
2017-07-27T03:58:21.120Z,1000.19
2017-07-27T03:58:47.261Z,1000.13
2017-07-27T03:59:13.403Z,1000.17
2017-07-27T03:59:39.547Z,1000.16
2017-07-27T04:00:05.733Z,1000.16
2017-07-27T04:00:31.846Z,1000.12
2017-07-27T04:00:57.976Z,1000.13
2017-07-27T04:01:24.142Z,1000.14
2017-07-27T04:01:50.278Z,1000.14
2017-07-27T04:02:16.403Z,1000.14
2017-07-27T04:02:42.538Z,1000.09
2017-07-27T04:03:08.680Z,1000.16
2017-07-27T04:03:34.824Z,1000.13
2017-07-27T04:04:00.987Z,1000.14
2017-07-27T04:04:27.138Z,1000.18
2017-07-27T04:04:53.298Z,1000.2
2017-07-27T04:05:19.428Z,1000.22
2017-07-27T04:05:45.550Z,1000.24
2017-07-27T04:06:11.683Z,1000.18
2017-07-27T04:06:37.879Z,1000.16
2017-07-27T04:07:04.322Z,1000.17
2017-07-27T04:07:30.458Z,1000.19
2017-07-27T04:07:56.552Z,1000.2
2017-07-27T04:08:22.693Z,1000.19
2017-07-27T04:08:48.830Z,1000.22
2017-07-27T04:09:14.929Z,1000.24
2017-07-27T04:09:41.040Z,1000.21
2017-07-27T04:10:07.203Z,1000.2
2017-07-27T04:10:33.330Z,1000.2
2017-07-27T04:10:59.503Z,1000.18
2017-07-27T04:11:25.621Z,1000.16
2017-07-27T04:11:51.762Z,1000.19
2017-07-27T04:12:17.846Z,1000.21
2017-07-27T04:12:43.998Z,1000.16
2017-07-27T04:13:10.141Z,1000.15
2017-07-27T04:13:36.274Z,1000.13
2017-07-27T04:14:02.432Z,1000.12
2017-07-27T04:14:28.547Z,1000.12
2017-07-27T04:14:54.729Z,1000.12
2017-07-27T04:15:20.887Z,1000.12
2017-07-27T04:15:46.999Z,1000.13
2017-07-27T04:16:13.149Z,1000.13
2017-07-27T04:16:39.270Z,1000.16
2017-07-27T04:17:05.404Z,1000.15
2017-07-27T04:17:31.504Z,1000.13
2017-07-27T04:17:57.641Z,1000.1
2017-07-27T04:18:23.852Z,1000.1
2017-07-27T04:18:49.987Z,1000.08
2017-07-27T04:19:16.124Z,1000.07
2017-07-27T04:19:42.251Z,1000.04
2017-07-27T04:20:08.413Z,1000.05
2017-07-27T04:20:34.503Z,1000.05
2017-07-27T04:21:00.648Z,1000.05
2017-07-27T04:21:26.782Z,1000.05
2017-07-27T04:21:52.901Z,1000.04
2017-07-27T04:22:19.043Z,999.97
2017-07-27T04:22:45.206Z,1000.04
2017-07-27T04:23:11.326Z,999.99
2017-07-27T04:23:37.489Z,1000.05
2017-07-27T04:24:03.622Z,1000.04
2017-07-27T04:24:29.774Z,1000.04
2017-07-27T04:24:55.918Z,1000.03
2017-07-27T04:25:22.094Z,1000.01
2017-07-27T04:25:48.285Z,1000.08
2017-07-27T04:26:14.396Z,1000.06
2017-07-27T04:26:40.496Z,1000.07
2017-07-27T04:27:06.630Z,1000.1
2017-07-27T04:27:32.749Z,1000.11
2017-07-27T04:27:58.881Z,1000.13
2017-07-27T04:28:24.970Z,1000.12
2017-07-27T04:28:51.072Z,1000.15
2017-07-27T04:29:17.205Z,1000.14
2017-07-27T04:29:43.319Z,1000.16
2017-07-27T04:30:09.497Z,1000.15
2017-07-27T04:30:35.661Z,1000.17
2017-07-27T04:31:01.802Z,1000.22
2017-07-27T04:31:27.899Z,1000.19
2017-07-27T04:31:54.032Z,1000.14
2017-07-27T04:32:20.154Z,1000.14
2017-07-27T04:32:46.342Z,1000.18
2017-07-27T04:33:12.532Z,1000.2
2017-07-27T04:33:38.631Z,1000.19
2017-07-27T04:34:04.738Z,1000.19
2017-07-27T04:34:30.854Z,1000.22
2017-07-27T04:34:56.952Z,1000.19
2017-07-27T04:35:23.117Z,1000.19
2017-07-27T04:35:49.262Z,1000.21
2017-07-27T04:36:15.376Z,1000.16
2017-07-27T04:36:41.572Z,1000.2
2017-07-27T04:37:07.664Z,1000.19
2017-07-27T04:37:34.057Z,1000.2
2017-07-27T04:38:00.191Z,1000.21
2017-07-27T04:38:26.291Z,1000.21
2017-07-27T04:38:52.416Z,1000.19
2017-07-27T04:39:18.614Z,1000.18
2017-07-27T04:39:44.752Z,1000.24
2017-07-27T04:40:10.863Z,1000.23
2017-07-27T04:40:36.985Z,1000.22
2017-07-27T04:41:03.148Z,1000.22
2017-07-27T04:41:29.280Z,1000.24
2017-07-27T04:41:55.490Z,1000.22
2017-07-27T04:42:21.631Z,1000.27
2017-07-27T04:42:47.764Z,1000.25
2017-07-27T04:43:13.953Z,1000.22
2017-07-27T04:43:40.039Z,1000.23
2017-07-27T04:44:06.166Z,1000.22
2017-07-27T04:44:32.262Z,1000.27
2017-07-27T04:44:58.394Z,1000.25
2017-07-27T04:45:24.551Z,1000.23
2017-07-27T04:45:50.692Z,1000.23
2017-07-27T04:46:16.820Z,1000.29
2017-07-27T04:46:42.981Z,1000.23
2017-07-27T04:47:09.121Z,1000.24
2017-07-27T04:47:35.268Z,1000.28
2017-07-27T04:48:01.431Z,1000.26
2017-07-27T04:48:27.546Z,1000.19
2017-07-27T04:48:53.644Z,1000.21
2017-07-27T04:49:19.750Z,1000.22
2017-07-27T04:49:45.897Z,1000.19
2017-07-27T04:50:12.031Z,1000.18
2017-07-27T04:50:38.120Z,1000.18
2017-07-27T04:51:04.219Z,1000.18
2017-07-27T04:51:30.355Z,1000.22
2017-07-27T04:51:56.470Z,1000.19
2017-07-27T04:52:22.638Z,1000.2
2017-07-27T04:52:48.799Z,1000.16
2017-07-27T04:53:14.971Z,1000.2
2017-07-27T04:53:41.084Z,1000.19
2017-07-27T04:54:07.194Z,1000.19
2017-07-27T04:54:33.370Z,1000.23
2017-07-27T04:54:59.460Z,1000.15
2017-07-27T04:55:25.622Z,1000.19
2017-07-27T04:55:51.743Z,1000.19
2017-07-27T04:56:17.905Z,1000.16
2017-07-27T04:56:43.999Z,1000.18
2017-07-27T04:57:10.115Z,1000.15
2017-07-27T04:57:36.224Z,1000.16
2017-07-27T04:58:02.321Z,1000.16
2017-07-27T04:58:28.460Z,1000.14
2017-07-27T04:58:54.593Z,1000.13
2017-07-27T04:59:20.748Z,1000.09
2017-07-27T04:59:46.887Z,1000.15
2017-07-27T05:00:13.016Z,1000.13
2017-07-27T05:00:39.178Z,1000.15
2017-07-27T05:01:05.297Z,1000.15
2017-07-27T05:01:31.504Z,1000.14
2017-07-27T05:01:57.641Z,1000.18
2017-07-27T05:02:23.798Z,1000.16
2017-07-27T05:02:49.954Z,1000.14
2017-07-27T05:03:16.046Z,1000.12
2017-07-27T05:03:42.177Z,1000.14
2017-07-27T05:04:08.312Z,1000.09
2017-07-27T05:04:34.424Z,1000.13
2017-07-27T05:05:00.546Z,1000.21
2017-07-27T05:05:26.764Z,1000.13
2017-07-27T05:05:52.880Z,1000.1
2017-07-27T05:06:19.026Z,1000.13
2017-07-27T05:06:45.161Z,1000.13
2017-07-27T05:07:11.282Z,1000.06
2017-07-27T05:07:37.419Z,1000.12
2017-07-27T05:08:03.582Z,1000.04
2017-07-27T05:08:29.737Z,1000.07
2017-07-27T05:08:55.898Z,1000.06
2017-07-27T05:09:22.004Z,1000.09
2017-07-27T05:09:48.213Z,1000.13
2017-07-27T05:10:14.377Z,1000.11
2017-07-27T05:10:40.534Z,1000.04
2017-07-27T05:11:06.724Z,1000.07
2017-07-27T05:11:32.862Z,1000.09
2017-07-27T05:11:58.988Z,1000.12
2017-07-27T05:12:25.109Z,1000.1
2017-07-27T05:12:51.293Z,1000.09
2017-07-27T05:13:17.450Z,1000.11
2017-07-27T05:13:43.564Z,1000.09
2017-07-27T05:14:09.745Z,1000.11
2017-07-27T05:14:35.907Z,1000.14
2017-07-27T05:15:02.047Z,1000.17
2017-07-27T05:15:28.196Z,1000.18
2017-07-27T05:15:54.329Z,1000.17
2017-07-27T05:16:20.472Z,1000.21
2017-07-27T05:16:46.617Z,1000.21
2017-07-27T05:17:12.750Z,1000.22
2017-07-27T05:17:38.843Z,1000.25